sensor_id;sensor_type;location;lat;lon;timestamp;temperature;humidity
54516;DHT22;40422;45.892;4.738;2023-04-19T03:01:37;8.40;99.90
54516;DHT22;40422;45.892;4.738;2023-04-19T03:04:03;8.30;99.90
54516;DHT22;40422;45.892;4.738;2023-04-19T03:06:29;8.30;99.90
54516;DHT22;40422;45.892;4.738;2023-04-19T03:08:54;8.30;99.90
54516;DHT22;40422;45.892;4.738;2023-04-19T03:11:20;8.30;99.90
54516;DHT22;40422;45.892;4.738;2023-04-19T03:13:46;8.30;99.90
54516;DHT22;40422;45.892;4.738;2023-04-19T03:16:11;8.20;99.90
54516;DHT22;40422;45.892;4.738;2023-04-19T03:18:37;8.20;99.90
54516;DHT22;40422;45.892;4.738;2023-04-19T03:21:03;8.20;99.90
54516;DHT22;40422;45.892;4.738;2023-04-19T03:23:29;8.20;99.90
54516;DHT22;40422;45.892;4.738;2023-04-19T03:25:55;8.20;99.90
54516;DHT22;40422;45.892;4.738;2023-04-19T03:28:21;8.20;99.90
54516;DHT22;40422;45.892;4.738;2023-04-19T03:30:47;8.10;99.90
54516;DHT22;40422;45.892;4.738;2023-04-19T03:33:13;8.10;99.90
54516;DHT22;40422;45.892;4.738;2023-04-19T03:35:38;8.10;99.90
54516;DHT22;40422;45.892;4.738;2023-04-19T03:38:04;8.10;99.90
54516;DHT22;40422;45.892;4.738;2023-04-19T03:40:32;8.10;99.90
54516;DHT22;40422;45.892;4.738;2023-04-19T03:42:58;8.10;99.90
54516;DHT22;40422;45.892;4.738;2023-04-19T03:45:23;8.00;99.90
54516;DHT22;40422;45.892;4.738;2023-04-19T03:47:49;8.10;99.90
54516;DHT22;40422;45.892;4.738;2023-04-19T03:50:15;8.10;99.90
54516;DHT22;40422;45.892;4.738;2023-04-19T03:52:40;8.10;99.90
54516;DHT22;40422;45.892;4.738;2023-04-19T03:55:06;8.00;99.90
54516;DHT22;40422;45.892;4.738;2023-04-19T03:57:32;8.00;99.90
54516;DHT22;40422;45.892;4.738;2023-04-19T03:59:59;8.00;99.90
54516;DHT22;40422;45.892;4.738;2023-04-19T04:02:24;8.00;99.90
54516;DHT22;40422;45.892;4.738;2023-04-19T04:04:53;8.00;99.90
54516;DHT22;40422;45.892;4.738;2023-04-19T04:07:19;7.90;99.90
54516;DHT22;40422;45.892;4.738;2023-04-19T04:09:46;7.90;99.90
54516;DHT22;40422;45.892;4.738;2023-04-19T04:12:12;7.90;99.90
54516;DHT22;40422;45.892;4.738;2023-04-19T04:14:38;7.80;99.90
54516;DHT22;40422;45.892;4.738;2023-04-19T04:17:03;7.80;99.90
54516;DHT22;40422;45.892;4.738;2023-04-19T04:19:29;7.80;99.90
54516;DHT22;40422;45.892;4.738;2023-04-19T04:21:55;7.80;99.90
54516;DHT22;40422;45.892;4.738;2023-04-19T04:24:20;7.80;99.90
54516;DHT22;40422;45.892;4.738;2023-04-19T04:26:46;7.80;99.90
54516;DHT22;40422;45.892;4.738;2023-04-19T04:29:14;7.70;99.90
54516;DHT22;40422;45.892;4.738;2023-04-19T04:31:41;7.60;99.90
54516;DHT22;40422;45.892;4.738;2023-04-19T04:34:07;7.60;99.90
54516;DHT22;40422;45.892;4.738;2023-04-19T04:36:33;7.60;99.90
54516;DHT22;40422;45.892;4.738;2023-04-19T04:39:01;7.60;99.90
54516;DHT22;40422;45.892;4.738;2023-04-19T04:41:26;7.60;99.90
54516;DHT22;40422;45.892;4.738;2023-04-19T04:43:52;7.60;99.90
54516;DHT22;40422;45.892;4.738;2023-04-19T04:46:18;7.60;99.90
54516;DHT22;40422;45.892;4.738;2023-04-19T04:48:43;7.60;99.90
54516;DHT22;40422;45.892;4.738;2023-04-19T04:51:10;7.60;99.90
54516;DHT22;40422;45.892;4.738;2023-04-19T04:53:35;7.60;99.90
54516;DHT22;40422;45.892;4.738;2023-04-19T04:56:01;7.50;99.90
54516;DHT22;40422;45.892;4.738;2023-04-19T04:58:26;7.50;99.90
54516;DHT22;40422;45.892;4.738;2023-04-19T05:00:52;7.50;99.90
54516;DHT22;40422;45.892;4.738;2023-04-19T05:03:18;7.50;99.90
54516;DHT22;40422;45.892;4.738;2023-04-19T05:05:44;7.40;99.90
54516;DHT22;40422;45.892;4.738;2023-04-19T05:08:10;7.40;99.90
54516;DHT22;40422;45.892;4.738;2023-04-19T05:10:35;7.40;99.90
54516;DHT22;40422;45.892;4.738;2023-04-19T05:13:01;7.40;99.90
54516;DHT22;40422;45.892;4.738;2023-04-19T05:15:26;7.40;99.90
54516;DHT22;40422;45.892;4.738;2023-04-19T05:17:52;7.40;99.90
54516;DHT22;40422;45.892;4.738;2023-04-19T05:20:18;7.40;99.90
54516;DHT22;40422;45.892;4.738;2023-04-19T05:22:43;7.50;99.90
54516;DHT22;40422;45.892;4.738;2023-04-19T05:25:09;7.50;99.90
54516;DHT22;40422;45.892;4.738;2023-04-19T05:27:35;7.60;99.90
54516;DHT22;40422;45.892;4.738;2023-04-19T05:30:02;7.70;99.90
54516;DHT22;40422;45.892;4.738;2023-04-19T05:32:27;7.70;99.90
54516;DHT22;40422;45.892;4.738;2023-04-19T05:34:54;7.70;99.90
54516;DHT22;40422;45.892;4.738;2023-04-19T05:37:19;7.80;99.90
54516;DHT22;40422;45.892;4.738;2023-04-19T05:39:45;7.80;99.90
54516;DHT22;40422;45.892;4.738;2023-04-19T05:42:11;7.90;99.90
54516;DHT22;40422;45.892;4.738;2023-04-19T05:44:37;7.90;99.90
54516;DHT22;40422;45.892;4.738;2023-04-19T05:47:02;8.00;99.90
54516;DHT22;40422;45.892;4.738;2023-04-19T05:49:28;8.00;99.90
54516;DHT22;40422;45.892;4.738;2023-04-19T05:51:53;8.10;99.90
54516;DHT22;40422;45.892;4.738;2023-04-19T05:54:20;8.20;99.90
54516;DHT22;40422;45.892;4.738;2023-04-19T05:56:45;8.20;99.90
54516;DHT22;40422;45.892;4.738;2023-04-19T05:59:11;8.20;99.90
54516;DHT22;40422;45.892;4.738;2023-04-19T06:01:38;8.20;99.90
54516;DHT22;40422;45.892;4.738;2023-04-19T06:04:04;8.20;99.90
54516;DHT22;40422;45.892;4.738;2023-04-19T06:06:29;8.30;99.90
54516;DHT22;40422;45.892;4.738;2023-04-19T06:08:55;8.40;99.90
54516;DHT22;40422;45.892;4.738;2023-04-19T06:11:20;8.40;99.90
54516;DHT22;40422;45.892;4.738;2023-04-19T06:13:47;8.60;99.90
54516;DHT22;40422;45.892;4.738;2023-04-19T06:16:12;8.90;99.90
54516;DHT22;40422;45.892;4.738;2023-04-19T06:18:39;9.10;99.90
54516;DHT22;40422;45.892;4.738;2023-04-19T06:21:05;9.10;99.90
54516;DHT22;40422;45.892;4.738;2023-04-19T06:23:31;9.10;99.90
54516;DHT22;40422;45.892;4.738;2023-04-19T06:25:56;9.10;99.90
54516;DHT22;40422;45.892;4.738;2023-04-19T06:28:22;9.10;99.90
54516;DHT22;40422;45.892;4.738;2023-04-19T06:30:47;9.10;99.90
54516;DHT22;40422;45.892;4.738;2023-04-19T06:33:13;9.20;99.90
54516;DHT22;40422;45.892;4.738;2023-04-19T06:35:38;9.20;99.90
54516;DHT22;40422;45.892;4.738;2023-04-19T06:38:04;9.30;99.90
54516;DHT22;40422;45.892;4.738;2023-04-19T06:40:30;9.40;99.90
54516;DHT22;40422;45.892;4.738;2023-04-19T06:42:56;9.50;99.90
54516;DHT22;40422;45.892;4.738;2023-04-19T06:45:21;9.60;99.90
54516;DHT22;40422;45.892;4.738;2023-04-19T06:47:47;9.70;99.90
54516;DHT22;40422;45.892;4.738;2023-04-19T06:50:12;9.90;99.90
54516;DHT22;40422;45.892;4.738;2023-04-19T06:52:39;10.00;99.90
54516;DHT22;40422;45.892;4.738;2023-04-19T06:55:05;10.10;99.90
54516;DHT22;40422;45.892;4.738;2023-04-19T06:57:31;10.20;99.90
54516;DHT22;40422;45.892;4.738;2023-04-19T06:59:57;10.40;99.90
54516;DHT22;40422;45.892;4.738;2023-04-19T07:02:23;10.70;99.90
54516;DHT22;40422;45.892;4.738;2023-04-19T07:04:49;11.00;99.90
54516;DHT22;40422;45.892;4.738;2023-04-19T07:07:15;11.20;99.90
54516;DHT22;40422;45.892;4.738;2023-04-19T07:09:41;11.40;99.90
54516;DHT22;40422;45.892;4.738;2023-04-19T07:12:06;11.60;99.90
54516;DHT22;40422;45.892;4.738;2023-04-19T07:14:32;11.80;99.90
54516;DHT22;40422;45.892;4.738;2023-04-19T07:16:58;12.00;99.90
54516;DHT22;40422;45.892;4.738;2023-04-19T07:19:23;12.20;99.90
54516;DHT22;40422;45.892;4.738;2023-04-19T07:21:50;12.40;99.90
54516;DHT22;40422;45.892;4.738;2023-04-19T07:24:16;12.60;99.90
54516;DHT22;40422;45.892;4.738;2023-04-19T07:26:41;12.70;99.90
54516;DHT22;40422;45.892;4.738;2023-04-19T07:29:07;12.80;99.90
54516;DHT22;40422;45.892;4.738;2023-04-19T07:31:33;13.00;99.90
54516;DHT22;40422;45.892;4.738;2023-04-19T07:33:58;13.20;99.90
54516;DHT22;40422;45.892;4.738;2023-04-19T07:36:24;13.30;99.90
54516;DHT22;40422;45.892;4.738;2023-04-19T07:38:50;13.40;99.90
54516;DHT22;40422;45.892;4.738;2023-04-19T07:41:16;13.50;99.90
54516;DHT22;40422;45.892;4.738;2023-04-19T07:43:42;13.50;99.90
54516;DHT22;40422;45.892;4.738;2023-04-19T07:46:09;13.70;99.90
54516;DHT22;40422;45.892;4.738;2023-04-19T07:48:35;13.70;99.90
54516;DHT22;40422;45.892;4.738;2023-04-19T07:51:09;13.60;99.90
54516;DHT22;40422;45.892;4.738;2023-04-19T07:53:34;13.60;99.90
54516;DHT22;40422;45.892;4.738;2023-04-19T07:56:00;13.70;99.90
54516;DHT22;40422;45.892;4.738;2023-04-19T07:58:26;13.80;99.90
54516;DHT22;40422;45.892;4.738;2023-04-19T08:00:51;13.90;99.90
54516;DHT22;40422;45.892;4.738;2023-04-19T08:03:17;14.00;99.90
54516;DHT22;40422;45.892;4.738;2023-04-19T08:05:42;14.10;99.90
54516;DHT22;40422;45.892;4.738;2023-04-19T08:08:08;14.30;99.90
54516;DHT22;40422;45.892;4.738;2023-04-19T08:10:34;14.40;99.90
54516;DHT22;40422;45.892;4.738;2023-04-19T08:13:00;14.50;99.90
54516;DHT22;40422;45.892;4.738;2023-04-19T08:15:26;14.50;99.90
54516;DHT22;40422;45.892;4.738;2023-04-19T08:17:52;14.60;99.90
54516;DHT22;40422;45.892;4.738;2023-04-19T08:20:18;14.60;99.90
54516;DHT22;40422;45.892;4.738;2023-04-19T08:22:44;14.70;99.90
54516;DHT22;40422;45.892;4.738;2023-04-19T08:25:10;14.80;99.90
54516;DHT22;40422;45.892;4.738;2023-04-19T08:27:35;14.90;99.90
54516;DHT22;40422;45.892;4.738;2023-04-19T08:30:01;15.00;99.90
54516;DHT22;40422;45.892;4.738;2023-04-19T08:32:27;15.10;99.90
54516;DHT22;40422;45.892;4.738;2023-04-19T08:34:53;15.20;99.90
54516;DHT22;40422;45.892;4.738;2023-04-19T08:37:19;15.40;99.90
54516;DHT22;40422;45.892;4.738;2023-04-19T08:39:44;15.50;99.90
54516;DHT22;40422;45.892;4.738;2023-04-19T08:42:10;15.70;99.90
54516;DHT22;40422;45.892;4.738;2023-04-19T08:44:36;15.80;99.90
54516;DHT22;40422;45.892;4.738;2023-04-19T08:47:04;16.00;99.90
54516;DHT22;40422;45.892;4.738;2023-04-19T08:49:34;16.10;99.90
54516;DHT22;40422;45.892;4.738;2023-04-19T08:52:02;16.20;99.90
54516;DHT22;40422;45.892;4.738;2023-04-19T08:54:29;16.40;99.90
54516;DHT22;40422;45.892;4.738;2023-04-19T08:56:58;16.40;99.90
54516;DHT22;40422;45.892;4.738;2023-04-19T08:59:24;16.30;99.90
54516;DHT22;40422;45.892;4.738;2023-04-19T09:01:50;16.30;99.90
54516;DHT22;40422;45.892;4.738;2023-04-19T09:04:16;16.40;99.90
54516;DHT22;40422;45.892;4.738;2023-04-19T09:06:41;16.50;99.90
54516;DHT22;40422;45.892;4.738;2023-04-19T09:11:46;16.80;99.90
54516;DHT22;40422;45.892;4.738;2023-04-19T09:14:14;16.80;99.90
54516;DHT22;40422;45.892;4.738;2023-04-19T09:16:40;16.80;99.90
54516;DHT22;40422;45.892;4.738;2023-04-19T09:19:06;16.80;99.90
54516;DHT22;40422;45.892;4.738;2023-04-19T09:21:34;17.00;99.90
54516;DHT22;40422;45.892;4.738;2023-04-19T09:24:01;17.20;99.90
54516;DHT22;40422;45.892;4.738;2023-04-19T09:26:27;17.30;99.90
54516;DHT22;40422;45.892;4.738;2023-04-19T09:28:58;17.50;99.90
54516;DHT22;40422;45.892;4.738;2023-04-19T09:31:27;17.70;99.90
54516;DHT22;40422;45.892;4.738;2023-04-19T09:33:53;17.90;99.90
54516;DHT22;40422;45.892;4.738;2023-04-19T09:36:30;18.10;99.90
54516;DHT22;40422;45.892;4.738;2023-04-19T09:38:57;18.30;99.90
54516;DHT22;40422;45.892;4.738;2023-04-19T09:41:24;18.50;99.90
54516;DHT22;40422;45.892;4.738;2023-04-19T09:43:50;18.60;99.90
54516;DHT22;40422;45.892;4.738;2023-04-19T09:46:32;18.80;99.90
54516;DHT22;40422;45.892;4.738;2023-04-19T09:51:46;18.90;99.90
54516;DHT22;40422;45.892;4.738;2023-04-19T09:54:14;18.90;99.90
54516;DHT22;40422;45.892;4.738;2023-04-19T09:56:40;18.70;99.90
54516;DHT22;40422;45.892;4.738;2023-04-19T09:59:07;18.60;99.90
54516;DHT22;40422;45.892;4.738;2023-04-19T10:01:38;18.70;99.90
54516;DHT22;40422;45.892;4.738;2023-04-19T10:04:04;18.80;99.90
54516;DHT22;40422;45.892;4.738;2023-04-19T10:06:31;18.80;99.90
54516;DHT22;40422;45.892;4.738;2023-04-19T10:09:00;19.00;99.90
54516;DHT22;40422;45.892;4.738;2023-04-19T10:11:31;19.10;99.90
54516;DHT22;40422;45.892;4.738;2023-04-19T10:14:06;19.10;99.90
54516;DHT22;40422;45.892;4.738;2023-04-19T10:16:33;19.20;99.80
54516;DHT22;40422;45.892;4.738;2023-04-19T10:19:01;19.30;99.90
54516;DHT22;40422;45.892;4.738;2023-04-19T10:21:27;19.40;99.90
54516;DHT22;40422;45.892;4.738;2023-04-19T10:23:54;19.70;99.50
54516;DHT22;40422;45.892;4.738;2023-04-19T10:26:21;19.90;98.70
54516;DHT22;40422;45.892;4.738;2023-04-19T10:28:47;20.00;98.80
54516;DHT22;40422;45.892;4.738;2023-04-19T10:31:12;20.10;97.60
54516;DHT22;40422;45.892;4.738;2023-04-19T10:33:39;20.20;98.10
54516;DHT22;40422;45.892;4.738;2023-04-19T10:36:10;20.50;97.60
54516;DHT22;40422;45.892;4.738;2023-04-19T10:38:45;20.60;96.60
54516;DHT22;40422;45.892;4.738;2023-04-19T10:41:17;20.70;96.50
54516;DHT22;40422;45.892;4.738;2023-04-19T10:48:55;20.80;95.40
54516;DHT22;40422;45.892;4.738;2023-04-19T10:51:32;20.60;96.10
54516;DHT22;40422;45.892;4.738;2023-04-19T10:53:59;20.50;95.90
54516;DHT22;40422;45.892;4.738;2023-04-19T11:04:04;21.60;94.80
54516;DHT22;40422;45.892;4.738;2023-04-19T11:06:31;21.90;94.40
54516;DHT22;40422;45.892;4.738;2023-04-19T11:08:58;21.70;95.40
54516;DHT22;40422;45.892;4.738;2023-04-19T11:11:25;21.60;94.70
54516;DHT22;40422;45.892;4.738;2023-04-19T11:13:50;22.00;95.70
54516;DHT22;40422;45.892;4.738;2023-04-19T11:16:17;22.50;94.60
54516;DHT22;40422;45.892;4.738;2023-04-19T11:18:43;22.80;93.20
54516;DHT22;40422;45.892;4.738;2023-04-19T11:21:12;23.20;92.00
54516;DHT22;40422;45.892;4.738;2023-04-19T11:23:41;23.30;90.60
54516;DHT22;40422;45.892;4.738;2023-04-19T11:26:10;23.60;90.10
54516;DHT22;40422;45.892;4.738;2023-04-19T11:28:38;23.50;90.40
54516;DHT22;40422;45.892;4.738;2023-04-19T11:31:05;23.30;89.70
54516;DHT22;40422;45.892;4.738;2023-04-19T11:33:35;23.20;90.40
54516;DHT22;40422;45.892;4.738;2023-04-19T11:36:01;23.20;91.00
54516;DHT22;40422;45.892;4.738;2023-04-19T11:38:27;23.40;90.90
54516;DHT22;40422;45.892;4.738;2023-04-19T11:41:00;23.60;90.50
54516;DHT22;40422;45.892;4.738;2023-04-19T11:43:35;24.00;87.50
54516;DHT22;40422;45.892;4.738;2023-04-19T11:46:08;24.40;88.70
54516;DHT22;40422;45.892;4.738;2023-04-19T11:48:35;24.90;85.00
54516;DHT22;40422;45.892;4.738;2023-04-19T11:51:02;25.30;81.60
54516;DHT22;40422;45.892;4.738;2023-04-19T11:53:31;25.50;83.50
54516;DHT22;40422;45.892;4.738;2023-04-19T11:56:03;25.20;80.10
54516;DHT22;40422;45.892;4.738;2023-04-19T11:58:37;25.20;80.70
54516;DHT22;40422;45.892;4.738;2023-04-19T12:01:08;25.30;76.00
54516;DHT22;40422;45.892;4.738;2023-04-19T12:03:43;25.50;74.30
54516;DHT22;40422;45.892;4.738;2023-04-19T12:06:12;25.80;72.50
54516;DHT22;40422;45.892;4.738;2023-04-19T12:08:42;26.00;72.00
54516;DHT22;40422;45.892;4.738;2023-04-19T12:11:08;25.90;71.60
54516;DHT22;40422;45.892;4.738;2023-04-19T12:13:34;26.10;69.90
54516;DHT22;40422;45.892;4.738;2023-04-19T12:16:01;25.80;69.60
54516;DHT22;40422;45.892;4.738;2023-04-19T12:18:27;26.00;71.10
54516;DHT22;40422;45.892;4.738;2023-04-19T12:21:05;26.20;70.80
54516;DHT22;40422;45.892;4.738;2023-04-19T12:23:31;26.10;69.30
54516;DHT22;40422;45.892;4.738;2023-04-19T12:25:57;25.90;70.70
54516;DHT22;40422;45.892;4.738;2023-04-19T12:28:28;25.80;72.50
54516;DHT22;40422;45.892;4.738;2023-04-19T12:30:54;26.10;70.10
54516;DHT22;40422;45.892;4.738;2023-04-19T12:33:19;26.50;69.10
54516;DHT22;40422;45.892;4.738;2023-04-19T12:35:45;26.70;67.10
54516;DHT22;40422;45.892;4.738;2023-04-19T12:38:11;26.90;66.50
54516;DHT22;40422;45.892;4.738;2023-04-19T12:40:36;27.20;65.00
54516;DHT22;40422;45.892;4.738;2023-04-19T12:43:02;27.50;64.60
54516;DHT22;40422;45.892;4.738;2023-04-19T12:45:27;27.20;63.70
54516;DHT22;40422;45.892;4.738;2023-04-19T12:47:53;27.20;63.10
54516;DHT22;40422;45.892;4.738;2023-04-19T12:50:19;26.50;64.00
54516;DHT22;40422;45.892;4.738;2023-04-19T12:52:44;26.50;66.40
54516;DHT22;40422;45.892;4.738;2023-04-19T12:55:10;26.30;64.80
54516;DHT22;40422;45.892;4.738;2023-04-19T12:57:36;26.30;64.80
54516;DHT22;40422;45.892;4.738;2023-04-19T13:00:01;26.20;64.10
54516;DHT22;40422;45.892;4.738;2023-04-19T13:02:28;26.00;64.70
54516;DHT22;40422;45.892;4.738;2023-04-19T13:04:55;26.20;64.80
54516;DHT22;40422;45.892;4.738;2023-04-19T13:07:20;26.20;64.40
54516;DHT22;40422;45.892;4.738;2023-04-19T13:09:46;26.20;63.90
54516;DHT22;40422;45.892;4.738;2023-04-19T13:12:11;26.60;64.00
54516;DHT22;40422;45.892;4.738;2023-04-19T13:14:37;27.00;63.40
54516;DHT22;40422;45.892;4.738;2023-04-19T13:17:02;27.10;63.00
54516;DHT22;40422;45.892;4.738;2023-04-19T13:19:28;27.10;65.30
54516;DHT22;40422;45.892;4.738;2023-04-19T13:21:54;27.20;64.90
54516;DHT22;40422;45.892;4.738;2023-04-19T13:24:19;27.20;64.00
54516;DHT22;40422;45.892;4.738;2023-04-19T13:26:45;27.10;63.20
54516;DHT22;40422;45.892;4.738;2023-04-19T13:29:11;27.40;63.10
54516;DHT22;40422;45.892;4.738;2023-04-19T13:31:36;27.40;63.10
54516;DHT22;40422;45.892;4.738;2023-04-19T13:34:02;27.40;64.20
54516;DHT22;40422;45.892;4.738;2023-04-19T13:36:28;27.50;64.20
54516;DHT22;40422;45.892;4.738;2023-04-19T13:38:53;27.80;63.10
54516;DHT22;40422;45.892;4.738;2023-04-19T13:41:20;27.70;62.60
54516;DHT22;40422;45.892;4.738;2023-04-19T13:43:46;27.30;63.70
54516;DHT22;40422;45.892;4.738;2023-04-19T13:46:12;27.00;62.40
54516;DHT22;40422;45.892;4.738;2023-04-19T13:48:37;27.10;61.60
54516;DHT22;40422;45.892;4.738;2023-04-19T13:51:03;26.90;62.10
54516;DHT22;40422;45.892;4.738;2023-04-19T13:53:29;26.40;63.30
54516;DHT22;40422;45.892;4.738;2023-04-19T13:55:55;26.10;65.80
54516;DHT22;40422;45.892;4.738;2023-04-19T13:58:21;26.20;62.70
54516;DHT22;40422;45.892;4.738;2023-04-19T14:00:49;26.10;64.40
54516;DHT22;40422;45.892;4.738;2023-04-19T14:03:15;26.10;62.30
54516;DHT22;40422;45.892;4.738;2023-04-19T14:05:41;26.10;62.90
54516;DHT22;40422;45.892;4.738;2023-04-19T14:08:06;26.40;63.50
54516;DHT22;40422;45.892;4.738;2023-04-19T14:10:33;26.30;62.30
54516;DHT22;40422;45.892;4.738;2023-04-19T14:12:59;25.50;63.90
54516;DHT22;40422;45.892;4.738;2023-04-19T14:15:24;25.20;64.00
54516;DHT22;40422;45.892;4.738;2023-04-19T14:17:50;25.20;63.00
54516;DHT22;40422;45.892;4.738;2023-04-19T14:20:16;25.10;61.80
54516;DHT22;40422;45.892;4.738;2023-04-19T14:22:43;25.20;63.20
54516;DHT22;40422;45.892;4.738;2023-04-19T14:25:09;25.30;63.40
54516;DHT22;40422;45.892;4.738;2023-04-19T14:27:37;25.70;62.30
54516;DHT22;40422;45.892;4.738;2023-04-19T14:30:03;25.90;61.80
54516;DHT22;40422;45.892;4.738;2023-04-19T14:32:30;26.20;62.10
54516;DHT22;40422;45.892;4.738;2023-04-19T14:34:55;26.20;62.30
54516;DHT22;40422;45.892;4.738;2023-04-19T14:37:21;26.20;62.70
54516;DHT22;40422;45.892;4.738;2023-04-19T14:39:47;26.40;61.50
54516;DHT22;40422;45.892;4.738;2023-04-19T14:42:13;26.40;62.60
54516;DHT22;40422;45.892;4.738;2023-04-19T14:44:39;26.50;62.60
54516;DHT22;40422;45.892;4.738;2023-04-19T14:47:05;26.20;62.30
54516;DHT22;40422;45.892;4.738;2023-04-19T14:49:30;26.30;61.70
54516;DHT22;40422;45.892;4.738;2023-04-19T14:51:56;26.30;63.10
54516;DHT22;40422;45.892;4.738;2023-04-19T14:54:22;26.30;62.50
54516;DHT22;40422;45.892;4.738;2023-04-19T14:56:47;26.40;63.20
54516;DHT22;40422;45.892;4.738;2023-04-19T14:59:13;26.50;62.60
54516;DHT22;40422;45.892;4.738;2023-04-19T15:01:38;26.40;61.80
54516;DHT22;40422;45.892;4.738;2023-04-19T15:04:04;26.50;60.80
54516;DHT22;40422;45.892;4.738;2023-04-19T15:06:30;26.40;61.80
54516;DHT22;40422;45.892;4.738;2023-04-19T15:08:56;26.60;60.00
54516;DHT22;40422;45.892;4.738;2023-04-19T15:11:21;26.50;60.60
54516;DHT22;40422;45.892;4.738;2023-04-19T15:13:47;26.30;60.80
54516;DHT22;40422;45.892;4.738;2023-04-19T15:16:13;26.10;63.50
54516;DHT22;40422;45.892;4.738;2023-04-19T15:18:38;25.90;61.60
54516;DHT22;40422;45.892;4.738;2023-04-19T15:21:05;26.00;62.10
54516;DHT22;40422;45.892;4.738;2023-04-19T15:23:30;26.30;59.50
54516;DHT22;40422;45.892;4.738;2023-04-19T15:25:56;26.30;57.00
54516;DHT22;40422;45.892;4.738;2023-04-19T15:28:25;26.30;57.10
54516;DHT22;40422;45.892;4.738;2023-04-19T15:30:59;26.50;57.10
54516;DHT22;40422;45.892;4.738;2023-04-19T15:33:25;26.50;56.70
54516;DHT22;40422;45.892;4.738;2023-04-19T15:35:51;26.80;57.00
54516;DHT22;40422;45.892;4.738;2023-04-19T15:38:17;26.80;58.00
54516;DHT22;40422;45.892;4.738;2023-04-19T15:40:43;26.70;56.80
54516;DHT22;40422;45.892;4.738;2023-04-19T15:43:09;26.80;55.30
54516;DHT22;40422;45.892;4.738;2023-04-19T15:45:34;26.70;54.80
54516;DHT22;40422;45.892;4.738;2023-04-19T15:48:00;26.70;56.40
54516;DHT22;40422;45.892;4.738;2023-04-19T15:50:26;26.60;58.50
54516;DHT22;40422;45.892;4.738;2023-04-19T15:52:51;26.60;58.00
54516;DHT22;40422;45.892;4.738;2023-04-19T15:55:17;26.80;54.70
54516;DHT22;40422;45.892;4.738;2023-04-19T15:57:43;26.40;53.00
54516;DHT22;40422;45.892;4.738;2023-04-19T16:00:10;26.40;53.10
54516;DHT22;40422;45.892;4.738;2023-04-19T16:02:35;26.40;55.10
54516;DHT22;40422;45.892;4.738;2023-04-19T16:05:01;26.50;56.60
54516;DHT22;40422;45.892;4.738;2023-04-19T16:07:27;26.50;56.50
54516;DHT22;40422;45.892;4.738;2023-04-19T16:09:52;26.40;55.70
54516;DHT22;40422;45.892;4.738;2023-04-19T16:12:18;26.30;56.90
54516;DHT22;40422;45.892;4.738;2023-04-19T16:14:43;26.40;59.40
54516;DHT22;40422;45.892;4.738;2023-04-19T16:17:09;26.10;57.60
54516;DHT22;40422;45.892;4.738;2023-04-19T16:19:34;25.90;57.50
54516;DHT22;40422;45.892;4.738;2023-04-19T16:22:00;25.70;58.50
54516;DHT22;40422;45.892;4.738;2023-04-19T16:24:30;25.50;58.30
54516;DHT22;40422;45.892;4.738;2023-04-19T16:26:56;25.60;56.50
54516;DHT22;40422;45.892;4.738;2023-04-19T16:29:22;25.80;56.60
54516;DHT22;40422;45.892;4.738;2023-04-19T16:31:48;26.00;59.80
54516;DHT22;40422;45.892;4.738;2023-04-19T16:34:14;26.10;60.70
54516;DHT22;40422;45.892;4.738;2023-04-19T16:36:40;26.10;61.20
54516;DHT22;40422;45.892;4.738;2023-04-19T16:39:09;25.90;60.80
54516;DHT22;40422;45.892;4.738;2023-04-19T16:41:36;25.80;61.10
54516;DHT22;40422;45.892;4.738;2023-04-19T16:44:01;25.90;62.10
54516;DHT22;40422;45.892;4.738;2023-04-19T16:46:27;25.70;62.40
54516;DHT22;40422;45.892;4.738;2023-04-19T16:48:53;25.50;62.00
54516;DHT22;40422;45.892;4.738;2023-04-19T16:51:18;25.10;61.30
54516;DHT22;40422;45.892;4.738;2023-04-19T16:53:44;25.00;62.00
54516;DHT22;40422;45.892;4.738;2023-04-19T16:56:12;25.00;62.40
54516;DHT22;40422;45.892;4.738;2023-04-19T16:58:38;24.90;61.60
54516;DHT22;40422;45.892;4.738;2023-04-19T17:01:04;25.00;61.70
54516;DHT22;40422;45.892;4.738;2023-04-19T17:03:30;25.00;61.60
54516;DHT22;40422;45.892;4.738;2023-04-19T17:05:56;24.80;61.70
54516;DHT22;40422;45.892;4.738;2023-04-19T17:08:22;24.70;62.90
54516;DHT22;40422;45.892;4.738;2023-04-19T17:10:48;24.70;62.50
54516;DHT22;40422;45.892;4.738;2023-04-19T17:13:13;24.70;61.90
54516;DHT22;40422;45.892;4.738;2023-04-19T17:15:39;24.90;62.80
54516;DHT22;40422;45.892;4.738;2023-04-19T17:18:05;24.70;63.00
54516;DHT22;40422;45.892;4.738;2023-04-19T17:20:30;24.50;63.50
54516;DHT22;40422;45.892;4.738;2023-04-19T17:22:56;24.40;63.50
54516;DHT22;40422;45.892;4.738;2023-04-19T17:25:22;24.20;63.30
54516;DHT22;40422;45.892;4.738;2023-04-19T17:27:47;24.00;64.10
54516;DHT22;40422;45.892;4.738;2023-04-19T17:30:14;23.80;64.20
54516;DHT22;40422;45.892;4.738;2023-04-19T17:32:40;23.80;65.10
54516;DHT22;40422;45.892;4.738;2023-04-19T17:35:06;23.70;65.40
54516;DHT22;40422;45.892;4.738;2023-04-19T17:37:32;23.70;66.00
54516;DHT22;40422;45.892;4.738;2023-04-19T17:39:58;23.70;66.40
54516;DHT22;40422;45.892;4.738;2023-04-19T17:42:25;23.70;65.90
54516;DHT22;40422;45.892;4.738;2023-04-19T17:44:51;23.70;65.50
54516;DHT22;40422;45.892;4.738;2023-04-19T17:47:20;23.70;65.00
54516;DHT22;40422;45.892;4.738;2023-04-19T17:49:46;23.50;65.10
54516;DHT22;40422;45.892;4.738;2023-04-19T17:52:12;23.40;65.70
54516;DHT22;40422;45.892;4.738;2023-04-19T17:54:38;23.30;66.10
54516;DHT22;40422;45.892;4.738;2023-04-19T17:57:04;23.20;66.70
54516;DHT22;40422;45.892;4.738;2023-04-19T17:59:29;23.00;67.10
54516;DHT22;40422;45.892;4.738;2023-04-19T18:01:55;22.90;67.30
54516;DHT22;40422;45.892;4.738;2023-04-19T18:04:21;22.80;67.70
54516;DHT22;40422;45.892;4.738;2023-04-19T18:06:47;22.60;68.20
54516;DHT22;40422;45.892;4.738;2023-04-19T18:09:14;22.30;68.40
54516;DHT22;40422;45.892;4.738;2023-04-19T18:11:39;22.10;69.00
54516;DHT22;40422;45.892;4.738;2023-04-19T18:14:05;21.90;70.40
54516;DHT22;40422;45.892;4.738;2023-04-19T18:16:31;21.60;70.50
54516;DHT22;40422;45.892;4.738;2023-04-19T18:18:57;21.40;71.50
54516;DHT22;40422;45.892;4.738;2023-04-19T18:21:23;21.30;71.50
54516;DHT22;40422;45.892;4.738;2023-04-19T18:23:48;21.00;72.20
54516;DHT22;40422;45.892;4.738;2023-04-19T18:26:16;20.80;72.90
54516;DHT22;40422;45.892;4.738;2023-04-19T18:28:41;20.50;73.70
54516;DHT22;40422;45.892;4.738;2023-04-19T18:31:08;20.30;74.70
54516;DHT22;40422;45.892;4.738;2023-04-19T18:33:34;20.00;75.00
54516;DHT22;40422;45.892;4.738;2023-04-19T18:35:59;19.80;75.70
54516;DHT22;40422;45.892;4.738;2023-04-19T18:38:25;19.60;76.50
54516;DHT22;40422;45.892;4.738;2023-04-19T18:40:51;19.40;77.00
54516;DHT22;40422;45.892;4.738;2023-04-19T18:43:16;19.30;77.50
54516;DHT22;40422;45.892;4.738;2023-04-19T18:45:42;19.10;78.10
54516;DHT22;40422;45.892;4.738;2023-04-19T18:48:07;19.00;78.50